createdAt,value
2022-11-05T00:00:03.019Z,18.30
2022-11-05T00:02:48.357Z,17.30
2022-11-05T00:05:33.743Z,18.00
2022-11-05T00:08:21.414Z,18.10
2022-11-05T00:10:48.270Z,18.17
2022-11-05T00:13:34.250Z,17.40
2022-11-05T00:16:19.619Z,15.33
2022-11-05T00:19:06.145Z,16.73
2022-11-05T00:21:52.643Z,16.03
2022-11-05T00:24:38.077Z,12.53
2022-11-05T00:27:05.416Z,11.80
2022-11-05T00:29:32.160Z,5.27
2022-11-05T00:31:58.803Z,5.57
2022-11-05T00:34:25.451Z,7.23
2022-11-05T00:36:52.005Z,8.67
2022-11-05T00:39:18.560Z,10.17
2022-11-05T00:42:05.248Z,10.23
2022-11-05T00:44:50.265Z,8.43
2022-11-05T00:47:35.683Z,7.40
2022-11-05T00:50:02.231Z,10.83
2022-11-05T00:52:47.254Z,13.73
2022-11-05T00:55:13.807Z,14.83
2022-11-05T00:57:40.329Z,11.90
2022-11-05T01:00:07.483Z,12.10
2022-11-05T01:02:34.270Z,11.93
2022-11-05T01:05:00.960Z,12.40
2022-11-05T01:07:27.485Z,11.67
2022-11-05T01:09:54.045Z,10.10
2022-11-05T01:12:20.600Z,10.00
2022-11-05T01:14:47.134Z,9.63
2022-11-05T01:17:13.709Z,10.80
2022-11-05T01:19:40.252Z,12.33
2022-11-05T01:22:07.033Z,10.60
2022-11-05T01:24:33.614Z,12.03
2022-11-05T01:27:00.174Z,11.77
2022-11-05T01:29:26.732Z,11.83
2022-11-05T01:31:53.295Z,10.00
2022-11-05T01:34:19.828Z,10.97
2022-11-05T01:36:46.375Z,9.93
2022-11-05T01:39:12.968Z,10.50
2022-11-05T01:41:39.525Z,9.97
2022-11-05T01:44:06.259Z,11.57
2022-11-05T01:46:38.744Z,10.57
2022-11-05T01:49:24.535Z,13.27
2022-11-05T01:51:51.466Z,12.47
2022-11-05T01:54:22.748Z,13.77
2022-11-05T01:57:01.854Z,14.70
2022-11-05T01:59:30.604Z,15.67
2022-11-05T02:01:57.637Z,14.57
2022-11-05T02:04:36.268Z,15.77
2022-11-05T02:07:05.960Z,16.23
2022-11-05T02:09:35.839Z,16.87
2022-11-05T02:12:02.714Z,16.30
2022-11-05T02:14:29.615Z,16.57
2022-11-05T02:17:27.699Z,18.47
2022-11-05T02:20:28.783Z,18.53
2022-11-05T02:23:25.808Z,19.53
2022-11-05T02:26:37.839Z,20.03
2022-11-05T02:29:54.362Z,21.83
2022-11-05T02:32:32.463Z,22.60
2022-11-05T02:35:40.583Z,22.03
2022-11-05T02:38:12.093Z,23.23
2022-11-05T02:40:57.206Z,24.93
2022-11-05T02:43:56.131Z,25.70
2022-11-05T02:46:59.111Z,25.60
2022-11-05T02:49:56.611Z,25.67
2022-11-05T02:52:51.341Z,27.00
2022-11-05T02:55:25.889Z,25.10
2022-11-05T02:57:52.457Z,25.93
2022-11-05T03:00:51.776Z,26.27
2022-11-05T03:03:21.277Z,25.27
2022-11-05T03:06:22.718Z,27.77
2022-11-05T03:09:16.936Z,28.13
2022-11-05T03:12:06.393Z,28.13
2022-11-05T03:14:49.660Z,27.17
2022-11-05T03:17:30.576Z,28.67
2022-11-05T03:20:20.792Z,28.07
2022-11-05T03:22:54.505Z,27.97
2022-11-05T03:25:23.912Z,30.47
2022-11-05T03:27:55.701Z,29.33
2022-11-05T03:30:22.325Z,28.80
2022-11-05T03:32:57.004Z,28.27
2022-11-05T03:35:28.485Z,28.73
2022-11-05T03:38:00.873Z,27.27
2022-11-05T03:40:31.958Z,27.90
2022-11-05T03:43:01.267Z,28.63
2022-11-05T03:45:43.825Z,27.47
2022-11-05T03:48:12.828Z,24.83
2022-11-05T03:50:46.282Z,23.97
2022-11-05T03:53:21.514Z,23.97
2022-11-05T03:56:05.362Z,24.53
2022-11-05T03:58:32.259Z,25.97
2022-11-05T04:01:04.434Z,26.43
2022-11-05T04:03:36.122Z,26.07
2022-11-05T04:06:22.749Z,24.40
2022-11-05T04:09:08.247Z,21.00
2022-11-05T04:11:53.672Z,25.43
2022-11-05T04:14:20.276Z,24.67
2022-11-05T04:17:05.385Z,21.43
2022-11-05T04:20:01.452Z,22.30
2022-11-05T04:22:51.433Z,24.57
2022-11-05T04:25:18.808Z,24.37
2022-11-05T04:27:46.096Z,22.73
2022-11-05T04:30:20.198Z,21.70
2022-11-05T04:33:04.120Z,23.33
2022-11-05T04:35:35.964Z,22.23
2022-11-05T04:38:04.664Z,22.17
2022-11-05T04:40:31.529Z,21.80
2022-11-05T04:42:58.512Z,21.70
2022-11-05T04:45:27.200Z,21.03
2022-11-05T04:47:53.897Z,20.40
2022-11-05T04:50:20.955Z,18.13
2022-11-05T04:52:47.640Z,20.17
2022-11-05T04:55:14.279Z,18.93
2022-11-05T04:57:41.224Z,18.23
2022-11-05T05:00:08.563Z,16.93
2022-11-05T05:02:38.418Z,14.80
2022-11-05T05:05:05.650Z,18.63
2022-11-05T05:07:33.876Z,17.50
2022-11-05T05:10:01.849Z,18.43
2022-11-05T05:12:28.419Z,18.23
2022-11-05T05:14:54.967Z,17.47
2022-11-05T05:17:21.821Z,16.13
2022-11-05T05:20:06.847Z,15.87
2022-11-05T05:22:33.806Z,15.70
2022-11-05T05:25:00.348Z,16.20
2022-11-05T05:27:31.275Z,15.03
2022-11-05T05:29:58.974Z,17.07
2022-11-05T05:32:26.572Z,17.30
2022-11-05T05:34:53.351Z,16.50
2022-11-05T05:37:20.050Z,15.30
2022-11-05T05:39:47.726Z,15.47
2022-11-05T05:42:14.441Z,14.10
2022-11-05T05:44:41.221Z,15.63
2022-11-05T05:47:09.264Z,13.87
2022-11-05T05:49:35.800Z,14.90
2022-11-05T05:52:02.466Z,16.63
2022-11-05T05:54:32.839Z,15.80
2022-11-05T05:57:01.719Z,14.93
2022-11-05T05:59:28.290Z,15.00
2022-11-05T06:01:55.116Z,17.10
2022-11-05T06:04:21.838Z,17.13
2022-11-05T06:06:48.449Z,15.70
2022-11-05T06:09:15.593Z,16.87
2022-11-05T06:11:42.347Z,17.57
2022-11-05T06:14:12.930Z,17.80
2022-11-05T06:16:40.169Z,17.13
2022-11-05T06:19:07.557Z,17.97
2022-11-05T06:21:34.867Z,17.30
2022-11-05T06:24:02.548Z,17.23
2022-11-05T06:26:29.349Z,18.93
2022-11-05T06:28:56.535Z,17.53
2022-11-05T06:31:23.203Z,16.10
2022-11-05T06:33:49.762Z,19.37
2022-11-05T06:36:18.800Z,17.43
2022-11-05T06:38:45.406Z,17.70
2022-11-05T06:41:12.013Z,13.83
2022-11-05T06:43:38.799Z,18.00
2022-11-05T06:46:05.733Z,17.00
2022-11-05T06:48:32.961Z,16.43
2022-11-05T06:50:59.525Z,17.60
2022-11-05T06:53:26.074Z,18.17
2022-11-05T06:55:52.603Z,17.43
2022-11-05T06:58:19.282Z,18.43
2022-11-05T07:00:46.397Z,16.23
2022-11-05T07:03:13.556Z,18.63
2022-11-05T07:05:45.791Z,17.77
2022-11-05T07:08:12.364Z,20.27
2022-11-05T07:10:38.946Z,19.73
2022-11-05T07:13:08.316Z,17.30
2022-11-05T07:15:36.480Z,18.57
2022-11-05T07:18:03.529Z,18.87
2022-11-05T07:20:33.924Z,18.13
2022-11-05T07:23:02.830Z,17.23
2022-11-05T07:25:31.476Z,17.60
2022-11-05T07:27:58.136Z,19.73
2022-11-05T07:30:24.945Z,18.87
2022-11-05T07:32:51.703Z,17.43
2022-11-05T07:35:18.266Z,20.23
2022-11-05T07:37:50.009Z,19.30
2022-11-05T07:40:19.092Z,18.13
2022-11-05T07:42:50.638Z,19.10
2022-11-05T07:45:17.335Z,21.67
2022-11-05T07:47:47.903Z,14.37
2022-11-05T07:50:16.140Z,19.27
2022-11-05T07:52:42.988Z,19.83
2022-11-05T07:55:10.754Z,18.23
2022-11-05T07:57:45.409Z,18.23
2022-11-05T08:00:14.864Z,13.97
2022-11-05T08:02:42.756Z,17.27
2022-11-05T08:05:10.181Z,17.60
2022-11-05T08:07:38.110Z,10.43
2022-11-05T08:10:05.000Z,14.67
2022-11-05T08:12:32.788Z,12.80
2022-11-05T08:14:59.368Z,12.30
2022-11-05T08:17:26.151Z,11.67
2022-11-05T08:19:52.792Z,11.33
2022-11-05T08:22:19.390Z,11.60
2022-11-05T08:24:45.952Z,11.93
2022-11-05T08:27:12.532Z,10.17
2022-11-05T08:29:39.245Z,9.67
2022-11-05T08:32:05.832Z,10.20
2022-11-05T08:34:35.526Z,11.23
2022-11-05T08:37:02.397Z,9.20
2022-11-05T08:39:28.934Z,10.50
2022-11-05T08:41:55.593Z,8.53
2022-11-05T08:44:22.143Z,9.07
2022-11-05T08:46:48.780Z,7.67
2022-11-05T08:49:15.372Z,16.60
2022-11-05T08:51:43.946Z,9.37
2022-11-05T08:54:10.589Z,22.93
2022-11-05T08:56:37.179Z,9.53
2022-11-05T08:59:03.825Z,11.83
2022-11-05T09:01:30.683Z,10.37
2022-11-05T09:03:57.414Z,8.77
2022-11-05T09:06:24.141Z,7.67
2022-11-05T09:08:50.721Z,7.40
2022-11-05T09:11:18.350Z,15.07
2022-11-05T09:13:45.103Z,10.17
2022-11-05T09:16:23.834Z,7.57
2022-11-05T09:18:50.835Z,8.70
2022-11-05T09:21:18.696Z,7.30
2022-11-05T09:23:46.160Z,9.97
2022-11-05T09:26:13.672Z,6.97
2022-11-05T09:28:40.825Z,7.37
2022-11-05T09:31:09.996Z,6.83
2022-11-05T09:33:38.542Z,7.73
2022-11-05T09:36:05.858Z,5.73
2022-11-05T09:38:34.741Z,5.60
2022-11-05T09:41:20.470Z,3.97
2022-11-05T09:43:54.885Z,4.40
2022-11-05T09:46:27.368Z,4.83
2022-11-05T09:49:03.108Z,5.17
2022-11-05T09:51:30.980Z,5.57
2022-11-05T09:53:59.548Z,5.57
2022-11-05T09:56:36.907Z,5.03
2022-11-05T09:59:21.424Z,5.33
2022-11-05T10:01:48.884Z,4.83
2022-11-05T10:04:27.294Z,4.40
2022-11-05T10:07:02.679Z,4.63
2022-11-05T10:09:45.186Z,5.03
2022-11-05T10:12:29.992Z,5.17
2022-11-05T10:15:15.679Z,5.23
2022-11-05T10:17:48.332Z,5.00
2022-11-05T10:20:20.171Z,4.17
2022-11-05T10:22:49.754Z,4.57
2022-11-05T10:25:19.369Z,4.50
2022-11-05T10:27:53.094Z,4.00
2022-11-05T10:30:21.136Z,4.23
2022-11-05T10:32:48.959Z,4.03
2022-11-05T10:35:18.773Z,3.80
2022-11-05T10:37:46.747Z,4.23
2022-11-05T10:40:55.693Z,3.63
2022-11-05T10:43:30.544Z,3.20
2022-11-05T10:46:00.203Z,3.17
2022-11-05T10:48:52.958Z,2.87
2022-11-05T10:51:19.716Z,3.77
2022-11-05T10:54:02.189Z,3.63
2022-11-05T10:56:36.509Z,3.93
2022-11-05T10:59:11.821Z,3.83
2022-11-05T11:01:39.132Z,4.40
2022-11-05T11:04:20.508Z,4.37
2022-11-05T11:06:53.679Z,4.10
2022-11-05T11:09:31.984Z,3.77
2022-11-05T11:12:13.741Z,3.63
2022-11-05T11:14:40.522Z,4.00
2022-11-05T11:17:36.545Z,4.30
2022-11-05T11:20:21.930Z,4.20
2022-11-05T11:23:13.992Z,3.37
2022-11-05T11:26:00.594Z,3.93
2022-11-05T11:28:43.837Z,3.23
2022-11-05T11:31:16.436Z,3.53
2022-11-05T11:33:48.333Z,3.60
2022-11-05T11:36:17.888Z,3.70
2022-11-05T11:38:45.213Z,3.50
2022-11-05T11:41:26.378Z,3.20
2022-11-05T11:44:02.389Z,3.97
2022-11-05T11:46:33.567Z,4.20
2022-11-05T11:49:00.951Z,3.63
2022-11-05T11:51:36.865Z,3.60
2022-11-05T11:54:05.168Z,4.43
2022-11-05T11:56:43.839Z,4.20
2022-11-05T11:59:40.507Z,3.97
2022-11-05T12:02:43.911Z,5.30
2022-11-05T12:05:36.016Z,6.03
2022-11-05T12:08:45.966Z,4.50
2022-11-05T12:11:29.397Z,4.27
2022-11-05T12:14:00.314Z,3.70
2022-11-05T12:16:45.743Z,3.10
2022-11-05T12:19:22.919Z,3.80
2022-11-05T12:21:54.909Z,3.63
2022-11-05T12:24:59.566Z,2.97
2022-11-05T12:27:53.385Z,2.50
2022-11-05T12:30:22.008Z,2.60
2022-11-05T12:33:14.617Z,2.43
2022-11-05T12:36:06.360Z,2.73
2022-11-05T12:38:35.640Z,2.57
2022-11-05T12:41:16.598Z,1.97
2022-11-05T12:44:12.882Z,2.27
2022-11-05T12:46:51.803Z,1.80
2022-11-05T12:49:24.455Z,1.47
2022-11-05T12:52:09.968Z,2.23
2022-11-05T12:54:58.508Z,2.10
2022-11-05T12:57:28.488Z,1.53
2022-11-05T13:00:20.295Z,2.07
2022-11-05T13:03:02.004Z,1.70
2022-11-05T13:05:42.810Z,1.83
2022-11-05T13:08:21.767Z,1.50
2022-11-05T13:10:55.518Z,1.70
2022-11-05T13:13:35.376Z,1.40
2022-11-05T13:16:12.941Z,1.60
2022-11-05T13:18:45.597Z,1.50
2022-11-05T13:21:14.388Z,1.60
2022-11-05T13:23:46.880Z,1.40
2022-11-05T13:26:19.945Z,1.70
2022-11-05T13:28:54.151Z,2.03
2022-11-05T13:31:31.026Z,1.40
2022-11-05T13:34:00.831Z,1.40
2022-11-05T13:36:53.456Z,1.30
2022-11-05T13:39:32.918Z,1.43
2022-11-05T13:42:17.847Z,1.70
2022-11-05T13:45:05.737Z,1.10
2022-11-05T13:47:52.521Z,1.43
2022-11-05T13:50:27.800Z,1.80
2022-11-05T13:53:22.059Z,1.40
2022-11-05T13:55:57.548Z,1.63
2022-11-05T13:58:47.757Z,1.53
2022-11-05T14:01:21.481Z,1.50
2022-11-05T14:03:50.511Z,1.10
2022-11-05T14:06:31.172Z,1.27
2022-11-05T14:09:03.324Z,1.37
2022-11-05T14:11:37.224Z,1.53
2022-11-05T14:14:25.974Z,1.20
2022-11-05T14:17:14.216Z,1.50
2022-11-05T14:20:04.946Z,1.03
2022-11-05T14:22:31.446Z,1.20
2022-11-05T14:25:21.521Z,1.60
2022-11-05T14:27:50.929Z,1.37
2022-11-05T14:30:46.753Z,1.10
2022-11-05T14:33:24.071Z,1.90
2022-11-05T14:35:51.537Z,1.50
2022-11-05T14:38:27.300Z,1.70
2022-11-05T14:41:02.585Z,1.43
2022-11-05T14:43:33.998Z,1.03
2022-11-05T14:46:08.537Z,1.40
2022-11-05T14:48:40.269Z,1.40
2022-11-05T14:51:28.859Z,1.10
2022-11-05T14:54:02.999Z,1.20
2022-11-05T14:56:41.403Z,1.30
2022-11-05T14:59:32.437Z,1.10
2022-11-05T15:02:16.246Z,1.07
2022-11-05T15:04:45.490Z,1.20
2022-11-05T15:07:29.364Z,1.37
2022-11-05T15:10:10.607Z,1.10
2022-11-05T15:12:56.356Z,1.40
2022-11-05T15:15:27.949Z,1.27
2022-11-05T15:18:27.976Z,1.27
2022-11-05T15:20:58.232Z,1.30
2022-11-05T15:23:34.724Z,1.70
2022-11-05T15:26:32.106Z,1.10
2022-11-05T15:29:00.651Z,1.10
2022-11-05T15:31:36.558Z,1.27
2022-11-05T15:34:15.536Z,1.33
2022-11-05T15:36:52.017Z,4.33
2022-11-05T15:39:42.421Z,11.37
2022-11-05T15:42:23.600Z,3.47
2022-11-05T15:44:52.647Z,8.17
2022-11-05T15:47:21.947Z,3.23
2022-11-05T15:49:54.753Z,4.17
2022-11-05T15:52:24.007Z,42.20
2022-11-05T15:55:09.509Z,3.87
2022-11-05T15:57:40.080Z,2.83
2022-11-05T16:00:17.548Z,1.87
2022-11-05T16:02:52.336Z,1.97
2022-11-05T16:05:19.253Z,2.53
2022-11-05T16:07:47.854Z,3.07
2022-11-05T16:10:21.319Z,1.80
2022-11-05T16:12:48.108Z,2.00
2022-11-05T16:15:14.800Z,2.20
2022-11-05T16:17:59.163Z,1.50
2022-11-05T16:20:32.806Z,1.30
2022-11-05T16:23:01.961Z,1.57
2022-11-05T16:25:31.610Z,1.97
2022-11-05T16:27:59.668Z,1.33
2022-11-05T16:30:26.796Z,2.13
2022-11-05T16:32:53.921Z,1.50
2022-11-05T16:35:23.489Z,1.40
2022-11-05T16:37:52.469Z,1.90
2022-11-05T16:40:22.216Z,1.70
2022-11-05T16:42:51.473Z,1.87
2022-11-05T16:45:20.973Z,1.77
2022-11-05T16:47:48.361Z,1.70
2022-11-05T16:50:18.203Z,1.97
2022-11-05T16:52:46.117Z,2.27
2022-11-05T16:55:14.059Z,1.63
2022-11-05T16:57:43.000Z,2.30
2022-11-05T17:00:16.350Z,1.73
2022-11-05T17:02:43.088Z,2.20
2022-11-05T17:05:30.245Z,2.17
2022-11-05T17:07:57.375Z,1.87
2022-11-05T17:10:25.506Z,1.87
2022-11-05T17:12:52.640Z,4.23
2022-11-05T17:15:20.706Z,5.80
2022-11-05T17:17:48.110Z,7.07
2022-11-05T17:20:40.628Z,12.63
2022-11-05T17:23:10.195Z,3.27
2022-11-05T17:25:37.543Z,2.80
2022-11-05T17:28:04.704Z,1.97
2022-11-05T17:30:31.414Z,3.70
2022-11-05T17:32:58.437Z,2.53
2022-11-05T17:35:25.210Z,3.33
2022-11-05T17:37:51.753Z,4.57
2022-11-05T17:40:22.243Z,2.67
2022-11-05T17:42:50.176Z,3.13
2022-11-05T17:45:17.133Z,2.90
2022-11-05T17:47:44.382Z,2.47
2022-11-05T17:50:13.067Z,2.73
2022-11-05T17:52:39.728Z,2.47
2022-11-05T17:55:15.973Z,2.40
2022-11-05T17:57:47.644Z,2.87
2022-11-05T18:00:17.282Z,3.00
2022-11-05T18:02:44.424Z,2.67
2022-11-05T18:05:11.101Z,2.70
2022-11-05T18:07:37.713Z,3.50
2022-11-05T18:10:05.255Z,3.00
2022-11-05T18:12:31.930Z,3.97
2022-11-05T18:14:58.562Z,3.57
2022-11-05T18:17:25.315Z,3.40
2022-11-05T18:19:51.904Z,3.70
2022-11-05T18:22:19.441Z,3.73
2022-11-05T18:24:46.646Z,3.80
2022-11-05T18:27:13.221Z,4.10
2022-11-05T18:29:39.817Z,3.67
2022-11-05T18:32:06.601Z,4.17
2022-11-05T18:34:33.221Z,3.93
2022-11-05T18:36:59.785Z,4.60
2022-11-05T18:39:26.418Z,5.17
2022-11-05T18:41:52.972Z,4.03
2022-11-05T18:44:22.672Z,4.27
2022-11-05T18:46:58.109Z,4.33
2022-11-05T18:49:25.587Z,3.90
2022-11-05T18:51:52.185Z,3.93
2022-11-05T18:54:19.005Z,4.10
2022-11-05T18:56:46.264Z,3.20
2022-11-05T18:59:35.596Z,3.63
2022-11-05T19:02:02.379Z,4.10
2022-11-05T19:04:30.708Z,3.00
2022-11-05T19:07:03.117Z,4.10
2022-11-05T19:09:31.295Z,4.03
2022-11-05T19:11:57.885Z,4.10
2022-11-05T19:14:24.513Z,4.57
2022-11-05T19:16:51.089Z,3.70
2022-11-05T19:19:17.656Z,4.23
2022-11-05T19:21:44.415Z,3.00
2022-11-05T19:24:16.753Z,3.83
2022-11-05T19:26:44.134Z,3.50
2022-11-05T19:29:11.095Z,24.07
2022-11-05T19:31:37.652Z,23.07
2022-11-05T19:34:05.361Z,28.97
2022-11-05T19:36:33.191Z,5.27
2022-11-05T19:39:09.503Z,3.37
2022-11-05T19:41:36.072Z,5.80
2022-11-05T19:44:03.717Z,3.33
2022-11-05T19:46:31.244Z,3.57
2022-11-05T19:48:59.466Z,3.63
2022-11-05T19:51:29.176Z,4.13
2022-11-05T19:53:55.880Z,4.00
2022-11-05T19:56:33.542Z,3.73
2022-11-05T19:59:01.114Z,4.17
2022-11-05T20:01:30.239Z,4.03
2022-11-05T20:03:58.777Z,3.50
2022-11-05T20:06:43.280Z,2.80
2022-11-05T20:09:22.188Z,4.03
2022-11-05T20:11:51.349Z,4.37
2022-11-05T20:14:18.165Z,3.63
2022-11-05T20:16:46.238Z,4.63
2022-11-05T20:19:16.317Z,4.30
2022-11-05T20:21:43.514Z,3.00
2022-11-05T20:24:12.291Z,2.93
2022-11-05T20:26:39.293Z,3.90
2022-11-05T20:29:06.208Z,3.13
2022-11-05T20:31:32.773Z,3.20
2022-11-05T20:33:59.398Z,3.10
2022-11-05T20:36:26.580Z,2.97
2022-11-05T20:38:58.321Z,2.90
2022-11-05T20:41:26.235Z,3.10
2022-11-05T20:43:53.451Z,3.37
2022-11-05T20:46:21.873Z,2.67
2022-11-05T20:48:48.868Z,3.07
2022-11-05T20:51:18.980Z,3.33
2022-11-05T20:53:46.475Z,3.23
2022-11-05T20:56:22.599Z,2.70
2022-11-05T20:58:50.106Z,2.90
2022-11-05T21:01:17.469Z,3.10
2022-11-05T21:03:45.103Z,2.87
2022-11-05T21:06:12.847Z,3.00
2022-11-05T21:08:39.921Z,2.80
2022-11-05T21:11:07.131Z,3.83
2022-11-05T21:13:33.999Z,2.73
2022-11-05T21:16:00.985Z,2.83
2022-11-05T21:18:30.464Z,3.23
2022-11-05T21:20:57.506Z,2.40
2022-11-05T21:23:24.085Z,2.87
2022-11-05T21:25:50.733Z,1.77
2022-11-05T21:28:18.156Z,2.83
2022-11-05T21:30:46.337Z,3.00
2022-11-05T21:33:14.915Z,2.77
2022-11-05T21:35:44.144Z,2.33
2022-11-05T21:38:12.286Z,2.80
2022-11-05T21:40:39.169Z,3.03
2022-11-05T21:43:06.564Z,3.07
2022-11-05T21:45:33.557Z,2.97
2022-11-05T21:48:00.127Z,2.23
2022-11-05T21:50:45.332Z,3.03
2022-11-05T21:53:34.423Z,2.47
2022-11-05T21:56:23.809Z,1.97
2022-11-05T21:59:09.800Z,2.50
2022-11-05T22:01:36.424Z,2.20
2022-11-05T22:04:03.517Z,2.03
2022-11-05T22:06:33.112Z,2.03
2022-11-05T22:08:59.730Z,2.40
2022-11-05T22:11:26.305Z,2.80
2022-11-05T22:13:53.440Z,2.57
2022-11-05T22:16:20.115Z,2.20
2022-11-05T22:18:46.649Z,2.33
2022-11-05T22:21:19.423Z,4.03
2022-11-05T22:23:45.976Z,3.40
2022-11-05T22:26:12.846Z,1.90
2022-11-05T22:28:39.448Z,2.50
2022-11-05T22:31:13.391Z,2.47
2022-11-05T22:33:40.013Z,3.10
2022-11-05T22:36:07.146Z,2.80
2022-11-05T22:38:33.778Z,2.17
2022-11-05T22:41:06.560Z,2.10
2022-11-05T22:43:33.160Z,2.30
2022-11-05T22:46:15.028Z,2.70
2022-11-05T22:48:42.467Z,2.57
2022-11-05T22:51:15.104Z,2.30
2022-11-05T22:53:41.786Z,2.93
2022-11-05T22:56:12.865Z,2.27
2022-11-05T22:58:39.600Z,2.27
2022-11-05T23:01:08.005Z,2.80
2022-11-05T23:03:34.823Z,2.50
2022-11-05T23:06:03.996Z,3.43
2022-11-05T23:08:49.784Z,2.63
2022-11-05T23:11:40.697Z,3.57
2022-11-05T23:14:11.328Z,2.73
2022-11-05T23:16:57.543Z,2.60
2022-11-05T23:19:43.443Z,2.50
2022-11-05T23:22:34.158Z,2.57
2022-11-05T23:25:00.963Z,2.13
2022-11-05T23:27:32.565Z,2.67
2022-11-05T23:30:00.362Z,2.43
2022-11-05T23:32:28.374Z,2.50
2022-11-05T23:34:56.713Z,2.40
2022-11-05T23:37:44.292Z,2.00
2022-11-05T23:40:19.692Z,1.93
2022-11-05T23:43:05.316Z,1.70
2022-11-05T23:45:47.642Z,2.03
2022-11-05T23:48:23.204Z,2.73
2022-11-05T23:50:56.857Z,1.93
2022-11-05T23:53:24.083Z,1.67
2022-11-05T23:55:51.059Z,2.00
2022-11-05T23:58:18.167Z,2.23
